Hinckley, Ohio
Current Conditions -  °F | °C
As of 10:27 PM on Monday 20 Oct 2014 (Local Time) from KCLE Reporting Station
Light Rain Light Rain  
Wind Chill: 52°   Ceiling: 500
Heat Index: 52°   Visibility: 3mi
Dew Point: 51°   Wind: 6mph
Humidity: 97%   Direction: 230°SW
Pressure: 29.87"   Gusts: NA
Location:  41.24°N, 81.75°W
Report Text: KCLE 210227Z 23005KT 3SM -RA BR BKN005 OVC033 11/11 A2987 RMK AO2 P0002 T01110106 $
Loading
Personal Weather Stations






























Interactive Weather Map
Tropical Storm Tracking
New forecast layout! Learn more

10-Day Weather Forecast

Advertisements
Track Severe Weather on mobile